AirNav   Phillips 66 Aviation Fuel
 
 1124 users online  

0Q4 Selma Airport
Selma, California, USA

GOING TO SELMA?


FAA INFORMATION EFFECTIVE 26 APRIL 2018

Location

FAA Identifier: 0Q4
Lat/Long: 36-34-51.6018N / 119-39-25.1208W
36-34.860030N / 119-39.418680W
36.5810005 / -119.6569780
(estimated)
Elevation: 305 ft. / 93 m (estimated)
Variation: 15E (1985)
From city: 2 miles NW of SELMA, CA
Time zone: UTC -7 (UTC -8 during Standard Time)
Zip code: 93662

Airport Operations

Airport use: Open to the public
Activation date: 05/1963
Control tower: no
ARTCC: OAKLAND CENTER
FSS: RANCHO MURIETA FLIGHT SERVICE STATION
NOTAMs facility: RIU (NOTAM-D service available)
Attendance: UNATTND
Pattern altitude: 1105 ft. MSL
Wind indicator: lighted
Segmented circle: no
Lights: LIRL RWY 10/28 ON DUSK-DAWN.
Beacon: white-green (lighted land airport)
DUSK-0100. PPR FOR ROTG BCN AFTER 0100. CALL (559) 896-1001 DURING ATTENDANT HOURS.

Airport Communications

CTAF/UNICOM: 122.8
WX AWOS-3PT at O32 (11 nm NE): 120.175 (559-637-9453)
WX AWOS-3 at FCH (12 nm NW): 135.225 (559-488-1040)
WX ASOS at FAT (12 nm N): PHONE 559-255-3413
WX ASOS at HJO (16 nm S): 134.75 (559-585-8076)

Nearby radio navigation aids

VOR radial/distance  VOR name  Freq  Var
VISr311/15.3VISALIA VOR/DME109.4016E
CZQr142/19.7CLOVIS VORTAC112.9015E
FRAr168/31.5FRIANT VORTAC115.6017E

 
NDB name  Hdg/Dist  Freq  Var  ID
SALYER FARMS333/31.520516ECOR -.-. --- .-.

Airport Services

Fuel available: 100LL
Parking: tiedowns
Airframe service: NONE
Powerplant service: NONE
Bottled oxygen: NONE
Bulk oxygen: NONE

Runway Information

Runway 10/28

Dimensions: 2206 x 50 ft. / 672 x 15 m
Surface: asphalt, in fair condition
Weight bearing capacity: 
Single wheel: 12.0
Runway edge lights: non-standard
Runway edge markings: RWY NMBRS UNDERSIZED, CNTRLN MRKG SPACING NSTD
Gradient: W
RUNWAY 10  RUNWAY 28
Latitude: 36-34.947900N36-34.772160N
Longitude: 119-39.615960W119-39.221400W
Elevation: 308.0 ft.296.0 ft.
Gradient: 0.4%0.5% UP
Traffic pattern: leftleft
Markings: NSTD, in fair conditionNSTD, in fair condition
Runway end identifier lights: nono
Obstructions: 30 ft. pole, 725 ft. from runway, 20 ft. right of centerline, 17:1 slope to clear6 ft. berm, 325 ft. from runway, 100 ft. left of centerline, 20:1 slope to clear
+10 FT BERM 0-200 FT FM RY END & 100 FT L.

Airport Ownership and Management from official FAA records

Ownership: Privately-owned
Owner: SELMA AERODROME INC.
7225 E HUNTSMAN AVE.
SELMA, CA 93662-9420
Phone 559-896-1001
Manager: SONDRA THOMAS
7225 E HUNTSMAN AVE.
SELMA, CA 93662
Phone (559) 314-4900

Airport Operational Statistics

Aircraft based on the field: 44
Single engine airplanes: 43
Multi engine airplanes: 1
    
Aircraft operations: avg 26/day *
58% transient general aviation
42% local general aviation
* for 12-month period ending 18 October 2017

Additional Remarks

ARPT CLSD TO HELICOPTERS EXC PPR 559-896-1001.

Instrument Procedures

There are no published instrument procedures at 0Q4.

Some nearby airports with instrument procedures:

KFCH - Fresno Chandler Executive Airport (12 nm NW)
KFAT - Fresno Yosemite International Airport (12 nm N)
KHJO - Hanford Municipal Airport (16 nm S)
KVIS - Visalia Municipal Airport (20 nm SE)
KNLC - Lemoore Naval Air Station (Reeves Field) (21 nm SW)
 
Loc | Ops | Rwys | IFR | FBO | Links
Com | Nav | Svcs | Stats | Notes

AirNav Hotels Sweepstakes
 
Area around 0Q4 (Selma Airport)
 
Road maps at: MapQuest Bing Google
 
Aerial photo
WARNING: Photo may not be current or correct
Aerial photo of 0Q4 (Selma Airport)
Photo taken 16-Sep-2010
taken from 6,500 feet msl and looking toward the southwest.

Do you have a better or more recent aerial photo of Selma Airport that you would like to share? If so, please send us your photo.

 
Sectional chart

 
Airport distance calculator
Flying to Selma Airport? Find the distance to fly.

From to 0Q4

Sunrise and sunset
Times for 24-May-2018
 Local
(UTC-7)
 Zulu
(UTC)
Morning civil twilight05:1712:17
Sunrise05:4612:46
Sunset20:0503:05
Evening civil twilight20:3403:34

Current date and time
Zulu (UTC)  24-May-2018 12:52:18
Local (UTC-7)  24-May-2018 05:52:18
 
METAR
KFCH 
11nm NW 
241235Z AUTO 31004KT 10SM FEW050 13/10 A2994 RMK A01
KFAT 
12nm N 
241153Z 31010KT 10SM CLR 14/09 A2994 RMK AO2 SLP134 T01390094 10211 20139 53003
KHJO 
16nm S 
241153Z AUTO 32003KT 10SM CLR 14/10 A2996 RMK AO2 SLP147 T01390100 10217 20139 53014
KVIS 
20nm SE 
241156Z AUTO 24005KT 10SM CLR 14/11 A2996 RMK AO2 SLP150 T01390106 10217 20139 53014
KNLC 
21nm SW 
241239Z AUTO 34005KT 1 3/4SM HZ CLR 12/08 A2997 RMK AO2 T01220083
TAF
KFAT 
12nm N 
241120Z 2412/2512 31010KT P6SM SCT200 FM242300 32012G18KT P6SM SCT200 FM251100 33011KT P6SM OVC050 PROB30 2511/2512 P6SM -SHRA OVC050
NOTAMs
Click for the latest NOTAMs
NOTAMs are issued by the DoD/FAA and will open in a separate window not controlled by AirNav.

 

 
 

FBO, Fuel Providers, and Aircraft Ground Support

  
 Business Name 
 
 Contact 
 
 Services / Description 
 
Fuel Prices
 
Comments
  
Selma Aerodrome 559-896-1001
no information available

If you are affiliated with Selma Aerodrome and would like to show here your services, contact info, web link, logo, and more, click here
100LL
PS $5.80 
 Updated 13-Jan-2015
 
   write
PS=Pump service
Update Fuel Prices
 

Would you like to see your business listed on this page?

 If your business provides an interesting product or service to pilots, flight crews, aircraft, or users of the Selma Airport, you should consider listing it here.  To start the listing process, click on the button below
 
Add a business
 

Other Pages about Selma Airport

Update a link
 
Copyright © AirNav, LLC. All rights reserved. Privacy Policy  Contact